Gorham, New York
Current Conditions -  °F | °C
As of 4:53 AM on Monday 22 Dec 2014 (Local Time) from KPEO Reporting Station
Clear Clear  
Wind Chill: 18°   Ceiling: Unl
Heat Index: 24°   Visibility: 10mi
Dew Point: 19°   Wind: 5mph
Humidity: 81%   Direction: 150°SSE
Pressure: 30.24"   Gusts: NA
Location:  42.8°N, 77.13°W
Report Text: KPEO 220953Z AUTO 15004KT 10SM CLR M04/M07 A3024 RMK AO2 SLP253 T10441072
Loading
Personal Weather Stations






























Interactive Weather Map New forecast layout! Learn more

10-Day Weather Forecast

Advertisements
Track Severe Weather on mobile